EW5170 Weather Reports


Display with metric or nautical units.
time (UTC)temp
F
wind
direction
speed
MPH
gust
MPH
rain 1hr
in
rain 24hr
in
rain mn
in
humidity
%
barometer
mb
20210928013011 82 268 0.0 0.0 0.00 0.00 0.00 46 1012.2
20210928011539 82 268 0.0 1.0 0.00 0.00 0.00 44 1012.0
20210928010012 83 249 0.0 1.0 0.00 0.00 0.00 43 1012.0
20210928004524 84 251 0.0 0.0 0.00 0.00 0.00 42 1012.0
20210928003017 85 251 0.0 0.0 0.00 0.00 0.00 40 1012.0
20210928001505 87 251 0.0 1.0 0.00 0.00 0.00 37 1011.9
20210928000007 89 256 0.0 1.0 0.00 0.00 0.00 35 1012.0
20210927234505 91 187 0.0 1.0 0.00 0.00 0.00 33 1012.0
20210927233015 94 187 0.0 3.0 0.00 0.00 0.00 29 1011.9
20210927231524 95 221 0.0 1.0 0.00 0.00 0.00 30 1012.0
20210927230003 94 226 0.0 3.0 0.00 0.00 0.00 31 1012.0
20210927224509 94 242 0.0 1.0 0.00 0.00 0.00 31 1012.1
20210927223138 94 240 0.0 1.0 0.00 0.00 0.00 32 1012.2
20210927221621 95 234 0.0 1.0 0.00 0.00 0.00 30 1012.3
20210927220151 97 226 0.0 2.0 0.00 0.00 0.00 31 1012.4
20210927214708 97 235 0.0 2.0 0.00 0.00 0.00 29 1012.5
20210927213139 99 192 0.0 2.0 0.00 0.00 0.00 28 1012.5
20210927211626 97 226 0.0 1.0 0.00 0.00 0.00 31 1012.7
20210927210149 97 253 0.0 1.0 0.00 0.00 0.00 31 1012.8
20210927204623 97 219 0.0 2.0 0.00 0.00 0.00 31 1013.0
20210927203102 96 168 0.0 1.0 0.00 0.00 0.00 33 1013.0
20210927201629 98 168 0.0 4.0 0.00 0.00 0.00 30 1013.2
20210927200104 98 218 0.0 2.0 0.00 0.00 0.00 30 1013.2
20210927194603 97 237 0.0 3.0 0.00 0.00 0.00 32 1013.5
20210927193148 95 225 0.0 5.0 0.00 0.00 0.00 35 1013.7
20210927191545 94 242 1.0 4.0 0.00 0.00 0.00 34 1014.0
20210927190037 93 242 0.0 3.0 0.00 0.00 0.00 38 1014.2
20210927184543 90 198 0.0 2.0 0.00 0.00 0.00 43 1014.6
20210927183056 88 347 0.0 4.0 0.00 0.00 0.00 45 1014.9
20210927181527 86 207 0.0 2.0 0.00 0.00 0.00 49 1015.3
20210927180018 84 229 0.0 1.0 0.00 0.00 0.00 53 1015.6
20210927174518 83 229 0.0 3.0 0.00 0.00 0.00 52 1016.0
20210927173019 82 202 0.0 5.0 0.00 0.00 0.00 53 1016.1
20210927171507 82 169 0.0 4.0 0.00 0.00 0.00 55 1016.2
20210927170002 81 248 0.0 5.0 0.00 0.00 0.00 56 1016.3
20210927164841 80 222 1.0 9.0 0.00 0.00 0.00 57 1016.5
20210927163245 78 250 0.0 4.0 0.00 0.00 0.00 58 1016.7
20210927161643 77 252 0.0 5.0 0.00 0.00 0.00 63 1016.8
20210927160217 76 206 1.0 6.0 0.00 0.00 0.00 67 1016.9
20210927154715 74 219 0.0 3.0 0.00 0.00 0.00 74 1017.0
20210927153129 72 200 0.0 3.0 0.00 0.00 0.00 78 1017.0
20210927151622 70 219 0.0 2.0 0.00 0.00 0.00 82 1017.0
20210927150110 68 218 0.0 2.0 0.00 0.00 0.00 84 1017.0
20210927144613 66 205 0.0 1.0 0.00 0.00 0.00 86 1016.8
20210927143130 64 222 0.0 1.0 0.00 0.00 0.00 85 1016.6
20210927141551 62 222 0.0 0.0 0.00 0.00 0.00 84 1016.7
20210927140215 61 222 0.0 0.0 0.00 0.00 0.00 83 1016.6
20210927134531 60 222 0.0 0.0 0.00 0.00 0.00 81 1016.4
20210927133149 60 222 0.0 0.0 0.00 0.00 0.00 80 1016.3
20210927131534 59 222 0.0 0.0 0.00 0.00 0.00 80 1016.1
20210927130108 59 222 0.0 0.0 0.00 0.00 0.00 80 1015.9
20210927124609 59 222 0.0 0.0 0.00 0.00 0.00 79 1015.8
20210927123049 60 222 0.0 0.0 0.00 0.00 0.00 79 1015.7
20210927121604 60 222 0.0 0.0 0.00 0.00 0.00 79 1015.8
20210927120047 60 222 0.0 0.0 0.00 0.00 0.00 78 1015.7
20210927114520 60 222 0.0 0.0 0.00 0.00 0.00 77 1015.8
20210927113033 61 222 0.0 0.0 0.00 0.00 0.00 77 1015.8
20210927111525 62 222 0.0 0.0 0.00 0.00 0.00 77 1015.8
20210927110014 62 222 0.0 0.0 0.00 0.00 0.00 76 1015.8
20210927104512 63 222 0.0 0.0 0.00 0.00 0.00 77 1015.6
20210927103016 63 222 0.0 0.0 0.00 0.00 0.00 75 1015.6
20210927101512 63 222 0.0 0.0 0.00 0.00 0.00 75 1015.6
20210927100011 64 222 0.0 0.0 0.00 0.00 0.00 74 1015.7
20210927094508 64 222 0.0 0.0 0.00 0.00 0.00 74 1015.7
20210927091754 66 222 0.0 0.0 0.00 0.00 0.00 75 1016.0
20210927090127 66 222 0.0 0.0 0.00 0.00 0.00 74 1016.0
20210927084630 67 222 0.0 0.0 0.00 0.00 0.00 73 1016.1
20210927083116 67 222 0.0 0.0 0.00 0.00 0.00 72 1016.1
20210927081624 68 222 0.0 2.0 0.00 0.00 0.00 72 1016.2
20210927080051 68 220 0.0 2.0 0.00 0.00 0.00 71 1016.3
20210927074624 69 220 0.0 1.0 0.00 0.00 0.00 70 1016.5
20210927073120 69 219 0.0 1.0 0.00 0.00 0.00 70 1016.4
20210927071617 69 220 0.0 1.0 0.00 0.00 0.00 69 1016.5
20210927070127 70 211 0.0 3.0 0.00 0.00 0.00 68 1016.5
20210927064545 70 312 0.0 1.0 0.00 0.00 0.00 67 1016.5
20210927063122 70 222 0.0 3.0 0.00 0.00 0.00 66 1016.5
20210927061627 71 272 0.0 1.0 0.00 0.00 0.00 66 1016.4
20210927060036 71 240 0.0 2.0 0.00 0.00 0.00 64 1016.3
20210927054545 71 240 0.0 1.0 0.00 0.00 0.00 63 1016.4
20210927053040 72 219 0.0 1.0 0.00 0.00 0.00 61 1016.4
20210927051539 72 215 0.0 1.0 0.00 0.00 0.00 61 1016.3
20210927050142 72 219 0.0 2.0 0.00 0.00 0.00 60 1016.3
20210927044611 73 235 0.0 1.0 0.00 0.00 0.00 59 1016.2
20210927043057 73 189 0.0 1.0 0.00 0.00 0.00 56 1016.1
20210927041549 73 189 0.0 3.0 0.00 0.00 0.00 54 1016.0
20210927040038 72 265 0.0 1.0 0.00 0.00 0.00 54 1016.1
20210927034527 72 267 0.0 1.0 0.00 0.00 0.00 52 1016.1
20210927033048 72 269 0.0 1.0 0.00 0.00 0.00 50 1016.0
20210927031558 72 269 0.0 1.0 0.00 0.00 0.00 49 1015.9
20210927030038 73 269 0.0 0.0 0.00 0.00 0.00 49 1015.8
20210927024528 73 269 0.0 0.0 0.00 0.00 0.00 47 1015.7
20210927023116 73 269 0.0 2.0 0.00 0.00 0.00 47 1015.5
20210927021600 73 252 0.0 0.0 0.00 0.00 0.00 46 1015.4
20210927020100 74 252 0.0 0.0 0.00 0.00 0.00 45 1015.3
20210927014614 75 252 0.0 0.0 0.00 0.00 0.00 43 1015.3